DXXX/LFW METAR and TAF weather

Enter ICAO airport designator
Station Type Date Time Source
DXXX METAR 2021/09/16 10:00 UTC NOAA

DXXX 161000Z 25007KT 9999 SCT013 28/24 Q1017 NOSIG


Station Type Date Time Source
DXXX Decoded METAR 2021/09/16 10:00 UTC NOAA

Lome, Togo (DXXX) 06-10N 001-15E 25M
Sep 16, 2021 - 06:00 AM EDT / 2021.09.16 1000 UTC
Wind: from the WSW (250 degrees) at 8 MPH (7 KT):0
Visibility: greater than 7 mile(s):0
Sky conditions: partly cloudy
Temperature: 82 F (28 C)
Dew Point: 75 F (24 C)
Relative Humidity: 78%
Pressure (altimeter): 30.03 in. Hg (1017 hPa)
ob: DXXX 161000Z 25007KT 9999 SCT013 28/24 Q1017 NOSIG
cycle: 10

Station Type Date Time Source
DXXX TAF 2021/09/16 06:42 UTC NOAA

TAF DXXX 160500Z 1606/1712 26005KT 9999 SCT012
BECMG 1608/1610 20010KT
BECMG 1622/1624 26003KT
BECMG 1708/1710 20010KT

Example: see airport list